Lineboro, Maryland
Current Conditions -  °F | °C
As of 3:35 AM on Friday 24 Oct 2014 (Local Time) from KDMW Reporting Station
Overcast Overcast  
Wind Chill: 54°   Ceiling: 3800
Heat Index: 54°   Visibility: 10mi
Dew Point: 43°   Wind: 12mph
Humidity: 67%   Direction: 300°WNW
Pressure: 29.91"   Gusts: 18mph
Location:  39.72°N, 76.84°W
Report Text: KDMW 240735Z AUTO 30010G16KT 10SM OVC038 12/06 A2991 RMK AO2
Loading
Personal Weather Stations






























Interactive Weather Map
Tropical Storm Tracking
New forecast layout! Learn more

10-Day Weather Forecast

Advertisements
Track Severe Weather on mobile